sensor_id;sensor_type;location;lat;lon;timestamp;P1;durP1;ratioP1;P2;durP2;ratioP2
76978;SDS011;65911;47.502;19.148;2023-02-23T00:00:43;16.00;;;6.82;;
76978;SDS011;65911;47.502;19.148;2023-02-23T00:03:46;11.93;;;5.13;;
76978;SDS011;65911;47.502;19.148;2023-02-23T00:06:50;11.63;;;5.07;;
76978;SDS011;65911;47.502;19.148;2023-02-23T00:09:53;12.50;;;5.60;;
76978;SDS011;65911;47.502;19.148;2023-02-23T00:12:56;11.40;;;5.15;;
76978;SDS011;65911;47.502;19.148;2023-02-23T00:16:02;11.30;;;5.10;;
76978;SDS011;65911;47.502;19.148;2023-02-23T00:19:05;10.38;;;5.05;;
76978;SDS011;65911;47.502;19.148;2023-02-23T00:22:09;12.00;;;4.75;;
76978;SDS011;65911;47.502;19.148;2023-02-23T00:25:11;11.70;;;5.20;;
76978;SDS011;65911;47.502;19.148;2023-02-23T00:28:13;9.20;;;4.47;;
76978;SDS011;65911;47.502;19.148;2023-02-23T00:31:16;11.85;;;5.45;;
76978;SDS011;65911;47.502;19.148;2023-02-23T00:34:19;11.93;;;5.18;;
76978;SDS011;65911;47.502;19.148;2023-02-23T00:37:22;11.05;;;4.88;;
76978;SDS011;65911;47.502;19.148;2023-02-23T00:40:24;11.20;;;4.90;;
76978;SDS011;65911;47.502;19.148;2023-02-23T00:43:27;11.63;;;5.10;;
76978;SDS011;65911;47.502;19.148;2023-02-23T00:46:29;12.77;;;5.40;;
76978;SDS011;65911;47.502;19.148;2023-02-23T00:49:31;12.77;;;4.88;;
76978;SDS011;65911;47.502;19.148;2023-02-23T00:52:36;11.65;;;5.00;;
76978;SDS011;65911;47.502;19.148;2023-02-23T00:55:39;11.10;;;5.03;;
76978;SDS011;65911;47.502;19.148;2023-02-23T00:58:43;12.38;;;5.07;;
76978;SDS011;65911;47.502;19.148;2023-02-23T01:01:45;11.02;;;4.90;;
76978;SDS011;65911;47.502;19.148;2023-02-23T01:04:48;13.57;;;4.78;;
76978;SDS011;65911;47.502;19.148;2023-02-23T01:07:50;14.88;;;4.82;;
76978;SDS011;65911;47.502;19.148;2023-02-23T01:10:52;15.30;;;5.55;;
76978;SDS011;65911;47.502;19.148;2023-02-23T01:13:55;11.90;;;4.90;;
76978;SDS011;65911;47.502;19.148;2023-02-23T01:16:58;10.93;;;4.47;;
76978;SDS011;65911;47.502;19.148;2023-02-23T01:20:00;12.63;;;5.22;;
76978;SDS011;65911;47.502;19.148;2023-02-23T01:23:03;13.73;;;4.40;;
76978;SDS011;65911;47.502;19.148;2023-02-23T01:26:13;12.33;;;4.80;;
76978;SDS011;65911;47.502;19.148;2023-02-23T01:29:19;10.00;;;4.47;;
76978;SDS011;65911;47.502;19.148;2023-02-23T01:32:24;9.38;;;4.40;;
76978;SDS011;65911;47.502;19.148;2023-02-23T01:35:27;13.88;;;4.63;;
76978;SDS011;65911;47.502;19.148;2023-02-23T01:38:29;10.13;;;4.43;;
76978;SDS011;65911;47.502;19.148;2023-02-23T01:41:32;10.68;;;4.28;;
76978;SDS011;65911;47.502;19.148;2023-02-23T01:47:40;9.73;;;3.87;;
76978;SDS011;65911;47.502;19.148;2023-02-23T01:54:05;9.68;;;3.70;;
76978;SDS011;65911;47.502;19.148;2023-02-23T01:57:10;10.20;;;4.03;;
76978;SDS011;65911;47.502;19.148;2023-02-23T02:00:13;7.45;;;3.63;;
76978;SDS011;65911;47.502;19.148;2023-02-23T02:03:38;9.70;;;4.07;;
76978;SDS011;65911;47.502;19.148;2023-02-23T02:06:45;10.07;;;3.90;;
76978;SDS011;65911;47.502;19.148;2023-02-23T02:09:50;9.70;;;4.20;;
76978;SDS011;65911;47.502;19.148;2023-02-23T02:13:16;10.43;;;4.25;;
76978;SDS011;65911;47.502;19.148;2023-02-23T02:16:28;9.43;;;4.05;;
76978;SDS011;65911;47.502;19.148;2023-02-23T02:23:41;8.05;;;3.75;;
76978;SDS011;65911;47.502;19.148;2023-02-23T02:31:30;12.47;;;3.93;;
76978;SDS011;65911;47.502;19.148;2023-02-23T02:40:48;8.93;;;4.07;;
76978;SDS011;65911;47.502;19.148;2023-02-23T02:47:05;10.52;;;4.45;;
76978;SDS011;65911;47.502;19.148;2023-02-23T02:50:10;10.45;;;4.20;;
76978;SDS011;65911;47.502;19.148;2023-02-23T02:53:29;11.73;;;4.20;;
76978;SDS011;65911;47.502;19.148;2023-02-23T02:56:44;10.48;;;4.32;;
76978;SDS011;65911;47.502;19.148;2023-02-23T02:59:48;11.10;;;3.97;;
76978;SDS011;65911;47.502;19.148;2023-02-23T03:06:52;11.27;;;4.28;;
76978;SDS011;65911;47.502;19.148;2023-02-23T03:10:27;11.43;;;4.53;;
76978;SDS011;65911;47.502;19.148;2023-02-23T03:17:46;9.52;;;4.03;;
76978;SDS011;65911;47.502;19.148;2023-02-23T03:21:14;11.77;;;4.60;;
76978;SDS011;65911;47.502;19.148;2023-02-23T03:28:29;10.63;;;4.17;;
76978;SDS011;65911;47.502;19.148;2023-02-23T03:35:22;9.80;;;4.20;;
76978;SDS011;65911;47.502;19.148;2023-02-23T03:38:57;10.63;;;4.87;;
76978;SDS011;65911;47.502;19.148;2023-02-23T03:42:23;13.30;;;4.35;;
76978;SDS011;65911;47.502;19.148;2023-02-23T03:45:47;12.43;;;4.53;;
76978;SDS011;65911;47.502;19.148;2023-02-23T03:49:09;9.40;;;4.38;;
76978;SDS011;65911;47.502;19.148;2023-02-23T03:52:33;14.05;;;5.05;;
76978;SDS011;65911;47.502;19.148;2023-02-23T03:55:59;12.40;;;4.78;;
76978;SDS011;65911;47.502;19.148;2023-02-23T03:59:21;12.57;;;4.38;;
76978;SDS011;65911;47.502;19.148;2023-02-23T04:02:46;12.07;;;4.43;;
76978;SDS011;65911;47.502;19.148;2023-02-23T04:06:10;12.57;;;5.43;;
76978;SDS011;65911;47.502;19.148;2023-02-23T04:09:32;12.93;;;4.72;;
76978;SDS011;65911;47.502;19.148;2023-02-23T04:13:00;9.23;;;5.20;;
76978;SDS011;65911;47.502;19.148;2023-02-23T04:16:17;13.65;;;4.80;;
76978;SDS011;65911;47.502;19.148;2023-02-23T04:19:20;10.85;;;4.75;;
76978;SDS011;65911;47.502;19.148;2023-02-23T04:22:23;14.20;;;4.80;;
76978;SDS011;65911;47.502;19.148;2023-02-23T04:25:25;10.23;;;5.15;;
76978;SDS011;65911;47.502;19.148;2023-02-23T04:28:29;10.95;;;5.30;;
76978;SDS011;65911;47.502;19.148;2023-02-23T04:31:31;17.83;;;5.60;;
76978;SDS011;65911;47.502;19.148;2023-02-23T04:34:33;10.43;;;4.37;;
76978;SDS011;65911;47.502;19.148;2023-02-23T04:37:35;11.10;;;5.07;;
76978;SDS011;65911;47.502;19.148;2023-02-23T04:40:38;12.70;;;5.40;;
76978;SDS011;65911;47.502;19.148;2023-02-23T04:43:40;11.60;;;5.10;;
76978;SDS011;65911;47.502;19.148;2023-02-23T04:46:42;11.75;;;5.72;;
76978;SDS011;65911;47.502;19.148;2023-02-23T04:49:44;11.95;;;5.10;;
76978;SDS011;65911;47.502;19.148;2023-02-23T04:52:47;13.90;;;5.80;;
76978;SDS011;65911;47.502;19.148;2023-02-23T04:55:49;11.63;;;5.38;;
76978;SDS011;65911;47.502;19.148;2023-02-23T04:58:52;12.23;;;5.07;;
76978;SDS011;65911;47.502;19.148;2023-02-23T05:01:54;11.32;;;5.43;;
76978;SDS011;65911;47.502;19.148;2023-02-23T05:04:56;11.17;;;5.17;;
76978;SDS011;65911;47.502;19.148;2023-02-23T05:07:59;12.73;;;5.43;;
76978;SDS011;65911;47.502;19.148;2023-02-23T05:11:01;12.13;;;5.82;;
76978;SDS011;65911;47.502;19.148;2023-02-23T05:14:03;11.73;;;6.00;;
76978;SDS011;65911;47.502;19.148;2023-02-23T05:17:06;12.95;;;5.68;;
76978;SDS011;65911;47.502;19.148;2023-02-23T05:20:10;10.82;;;4.80;;
76978;SDS011;65911;47.502;19.148;2023-02-23T05:23:12;11.55;;;5.43;;
76978;SDS011;65911;47.502;19.148;2023-02-23T05:26:15;12.57;;;6.32;;
76978;SDS011;65911;47.502;19.148;2023-02-23T05:29:17;14.93;;;6.10;;
76978;SDS011;65911;47.502;19.148;2023-02-23T05:32:20;16.75;;;5.93;;
76978;SDS011;65911;47.502;19.148;2023-02-23T05:35:22;13.27;;;5.37;;
76978;SDS011;65911;47.502;19.148;2023-02-23T05:38:25;14.07;;;5.63;;
76978;SDS011;65911;47.502;19.148;2023-02-23T05:41:28;10.65;;;5.35;;
76978;SDS011;65911;47.502;19.148;2023-02-23T05:44:30;10.90;;;5.33;;
76978;SDS011;65911;47.502;19.148;2023-02-23T05:47:32;11.10;;;5.70;;
76978;SDS011;65911;47.502;19.148;2023-02-23T05:50:39;18.30;;;6.00;;
76978;SDS011;65911;47.502;19.148;2023-02-23T05:53:41;16.17;;;5.88;;
76978;SDS011;65911;47.502;19.148;2023-02-23T05:56:44;11.52;;;5.65;;
76978;SDS011;65911;47.502;19.148;2023-02-23T05:59:46;13.82;;;5.97;;
76978;SDS011;65911;47.502;19.148;2023-02-23T06:02:48;12.77;;;5.63;;
76978;SDS011;65911;47.502;19.148;2023-02-23T06:05:55;16.43;;;5.77;;
76978;SDS011;65911;47.502;19.148;2023-02-23T06:08:59;12.88;;;5.55;;
76978;SDS011;65911;47.502;19.148;2023-02-23T06:12:02;10.95;;;5.07;;
76978;SDS011;65911;47.502;19.148;2023-02-23T06:15:05;13.60;;;5.37;;
76978;SDS011;65911;47.502;19.148;2023-02-23T06:18:09;11.65;;;5.10;;
76978;SDS011;65911;47.502;19.148;2023-02-23T06:21:12;13.38;;;6.38;;
76978;SDS011;65911;47.502;19.148;2023-02-23T06:24:14;12.82;;;5.95;;
76978;SDS011;65911;47.502;19.148;2023-02-23T06:27:16;11.63;;;5.85;;
76978;SDS011;65911;47.502;19.148;2023-02-23T06:30:19;12.55;;;5.60;;
76978;SDS011;65911;47.502;19.148;2023-02-23T06:33:21;10.60;;;5.28;;
76978;SDS011;65911;47.502;19.148;2023-02-23T06:36:24;12.27;;;4.80;;
76978;SDS011;65911;47.502;19.148;2023-02-23T06:39:26;10.40;;;5.18;;
76978;SDS011;65911;47.502;19.148;2023-02-23T06:42:28;16.48;;;5.20;;
76978;SDS011;65911;47.502;19.148;2023-02-23T06:45:31;11.80;;;4.90;;
76978;SDS011;65911;47.502;19.148;2023-02-23T06:48:33;12.80;;;5.82;;
76978;SDS011;65911;47.502;19.148;2023-02-23T06:51:36;13.98;;;6.13;;
76978;SDS011;65911;47.502;19.148;2023-02-23T06:54:38;13.57;;;6.13;;
76978;SDS011;65911;47.502;19.148;2023-02-23T06:57:42;12.02;;;5.30;;
76978;SDS011;65911;47.502;19.148;2023-02-23T07:00:45;14.57;;;5.88;;
76978;SDS011;65911;47.502;19.148;2023-02-23T07:03:47;11.13;;;5.28;;
76978;SDS011;65911;47.502;19.148;2023-02-23T07:06:50;15.03;;;5.97;;
76978;SDS011;65911;47.502;19.148;2023-02-23T07:09:52;12.02;;;5.63;;
76978;SDS011;65911;47.502;19.148;2023-02-23T07:12:58;11.02;;;5.50;;
76978;SDS011;65911;47.502;19.148;2023-02-23T07:16:04;15.23;;;5.70;;
76978;SDS011;65911;47.502;19.148;2023-02-23T07:19:11;11.02;;;5.43;;
76978;SDS011;65911;47.502;19.148;2023-02-23T07:22:15;10.88;;;5.60;;
76978;SDS011;65911;47.502;19.148;2023-02-23T07:25:18;12.27;;;5.15;;
76978;SDS011;65911;47.502;19.148;2023-02-23T07:28:26;10.82;;;5.25;;
76978;SDS011;65911;47.502;19.148;2023-02-23T07:31:31;13.25;;;5.80;;
76978;SDS011;65911;47.502;19.148;2023-02-23T07:34:35;13.85;;;5.65;;
76978;SDS011;65911;47.502;19.148;2023-02-23T07:37:38;12.27;;;5.03;;
76978;SDS011;65911;47.502;19.148;2023-02-23T07:40:43;14.48;;;5.80;;
76978;SDS011;65911;47.502;19.148;2023-02-23T07:43:45;10.55;;;5.18;;
76978;SDS011;65911;47.502;19.148;2023-02-23T07:46:48;11.37;;;5.53;;
76978;SDS011;65911;47.502;19.148;2023-02-23T07:49:51;14.63;;;5.28;;
76978;SDS011;65911;47.502;19.148;2023-02-23T07:52:55;12.43;;;5.32;;
76978;SDS011;65911;47.502;19.148;2023-02-23T07:55:58;14.98;;;5.30;;
76978;SDS011;65911;47.502;19.148;2023-02-23T07:59:02;12.52;;;4.82;;
76978;SDS011;65911;47.502;19.148;2023-02-23T08:02:05;10.48;;;4.85;;
76978;SDS011;65911;47.502;19.148;2023-02-23T08:05:08;15.35;;;5.97;;
76978;SDS011;65911;47.502;19.148;2023-02-23T08:08:10;14.30;;;4.77;;
76978;SDS011;65911;47.502;19.148;2023-02-23T08:11:20;14.18;;;5.60;;
76978;SDS011;65911;47.502;19.148;2023-02-23T08:14:23;11.32;;;5.07;;
76978;SDS011;65911;47.502;19.148;2023-02-23T08:17:25;14.20;;;5.20;;
76978;SDS011;65911;47.502;19.148;2023-02-23T08:20:28;12.98;;;5.30;;
76978;SDS011;65911;47.502;19.148;2023-02-23T08:23:31;12.35;;;5.40;;
76978;SDS011;65911;47.502;19.148;2023-02-23T08:26:35;17.25;;;5.32;;
76978;SDS011;65911;47.502;19.148;2023-02-23T08:29:39;11.88;;;5.50;;
76978;SDS011;65911;47.502;19.148;2023-02-23T08:32:41;10.93;;;4.82;;
76978;SDS011;65911;47.502;19.148;2023-02-23T08:35:48;14.73;;;5.70;;
76978;SDS011;65911;47.502;19.148;2023-02-23T08:38:51;11.60;;;5.00;;
76978;SDS011;65911;47.502;19.148;2023-02-23T08:41:58;13.23;;;4.80;;
76978;SDS011;65911;47.502;19.148;2023-02-23T08:45:00;10.43;;;4.60;;
76978;SDS011;65911;47.502;19.148;2023-02-23T08:48:02;10.80;;;4.60;;
76978;SDS011;65911;47.502;19.148;2023-02-23T08:51:08;12.50;;;5.00;;
76978;SDS011;65911;47.502;19.148;2023-02-23T08:54:10;14.07;;;5.10;;
76978;SDS011;65911;47.502;19.148;2023-02-23T08:57:15;11.25;;;4.78;;
76978;SDS011;65911;47.502;19.148;2023-02-23T09:00:18;12.70;;;5.00;;
76978;SDS011;65911;47.502;19.148;2023-02-23T09:03:23;11.82;;;4.38;;
76978;SDS011;65911;47.502;19.148;2023-02-23T09:06:39;12.23;;;5.60;;
76978;SDS011;65911;47.502;19.148;2023-02-23T09:09:54;10.57;;;4.70;;
76978;SDS011;65911;47.502;19.148;2023-02-23T09:12:57;11.70;;;5.18;;
76978;SDS011;65911;47.502;19.148;2023-02-23T09:16:03;10.73;;;4.25;;
76978;SDS011;65911;47.502;19.148;2023-02-23T09:19:07;9.03;;;4.53;;
76978;SDS011;65911;47.502;19.148;2023-02-23T09:22:09;14.27;;;4.90;;
76978;SDS011;65911;47.502;19.148;2023-02-23T09:25:11;13.15;;;5.28;;
76978;SDS011;65911;47.502;19.148;2023-02-23T09:28:17;12.13;;;4.78;;
76978;SDS011;65911;47.502;19.148;2023-02-23T09:31:21;10.43;;;5.30;;
76978;SDS011;65911;47.502;19.148;2023-02-23T09:34:24;11.85;;;5.35;;
76978;SDS011;65911;47.502;19.148;2023-02-23T09:37:27;15.35;;;5.57;;
76978;SDS011;65911;47.502;19.148;2023-02-23T09:40:30;16.23;;;5.30;;
76978;SDS011;65911;47.502;19.148;2023-02-23T09:43:41;13.68;;;5.20;;
76978;SDS011;65911;47.502;19.148;2023-02-23T09:49:53;10.57;;;4.43;;
76978;SDS011;65911;47.502;19.148;2023-02-23T09:53:33;9.30;;;4.80;;
76978;SDS011;65911;47.502;19.148;2023-02-23T09:56:30;11.40;;;5.03;;
76978;SDS011;65911;47.502;19.148;2023-02-23T09:59:34;11.30;;;5.25;;
76978;SDS011;65911;47.502;19.148;2023-02-23T10:02:37;10.55;;;4.85;;
76978;SDS011;65911;47.502;19.148;2023-02-23T10:05:51;10.95;;;5.43;;
76978;SDS011;65911;47.502;19.148;2023-02-23T10:12:25;12.03;;;4.47;;
76978;SDS011;65911;47.502;19.148;2023-02-23T10:19:30;11.43;;;4.85;;
76978;SDS011;65911;47.502;19.148;2023-02-23T10:22:28;13.60;;;4.97;;
76978;SDS011;65911;47.502;19.148;2023-02-23T10:25:37;12.30;;;5.60;;
76978;SDS011;65911;47.502;19.148;2023-02-23T10:28:43;12.23;;;5.07;;
76978;SDS011;65911;47.502;19.148;2023-02-23T10:31:56;12.23;;;5.13;;
76978;SDS011;65911;47.502;19.148;2023-02-23T10:35:01;10.48;;;4.63;;
76978;SDS011;65911;47.502;19.148;2023-02-23T10:38:15;12.70;;;5.18;;
76978;SDS011;65911;47.502;19.148;2023-02-23T10:41:22;10.68;;;5.28;;
76978;SDS011;65911;47.502;19.148;2023-02-23T10:44:24;15.70;;;5.10;;
76978;SDS011;65911;47.502;19.148;2023-02-23T10:47:29;12.43;;;4.68;;
76978;SDS011;65911;47.502;19.148;2023-02-23T10:50:37;13.18;;;5.22;;
76978;SDS011;65911;47.502;19.148;2023-02-23T10:53:39;11.00;;;5.37;;
76978;SDS011;65911;47.502;19.148;2023-02-23T10:56:48;12.15;;;5.38;;
76978;SDS011;65911;47.502;19.148;2023-02-23T11:03:15;15.52;;;5.72;;
76978;SDS011;65911;47.502;19.148;2023-02-23T11:06:36;12.15;;;5.30;;
76978;SDS011;65911;47.502;19.148;2023-02-23T11:09:43;9.73;;;5.13;;
76978;SDS011;65911;47.502;19.148;2023-02-23T11:12:50;10.85;;;5.00;;
76978;SDS011;65911;47.502;19.148;2023-02-23T11:15:57;16.43;;;4.83;;
76978;SDS011;65911;47.502;19.148;2023-02-23T11:19:17;12.05;;;5.32;;
76978;SDS011;65911;47.502;19.148;2023-02-23T11:22:23;12.07;;;5.20;;
76978;SDS011;65911;47.502;19.148;2023-02-23T11:25:28;11.73;;;4.97;;
76978;SDS011;65911;47.502;19.148;2023-02-23T11:28:35;14.93;;;5.40;;
76978;SDS011;65911;47.502;19.148;2023-02-23T11:31:44;11.55;;;5.57;;
76978;SDS011;65911;47.502;19.148;2023-02-23T11:35:12;13.48;;;5.57;;
76978;SDS011;65911;47.502;19.148;2023-02-23T11:38:27;14.25;;;5.50;;
76978;SDS011;65911;47.502;19.148;2023-02-23T11:41:30;12.75;;;5.15;;
76978;SDS011;65911;47.502;19.148;2023-02-23T11:44:39;13.43;;;5.28;;
76978;SDS011;65911;47.502;19.148;2023-02-23T11:47:46;14.57;;;5.40;;
76978;SDS011;65911;47.502;19.148;2023-02-23T11:50:58;12.05;;;5.57;;
76978;SDS011;65911;47.502;19.148;2023-02-23T11:54:01;12.32;;;5.88;;
76978;SDS011;65911;47.502;19.148;2023-02-23T11:57:08;13.07;;;5.30;;
76978;SDS011;65911;47.502;19.148;2023-02-23T12:00:11;9.63;;;4.95;;
76978;SDS011;65911;47.502;19.148;2023-02-23T12:03:26;11.48;;;5.70;;
76978;SDS011;65911;47.502;19.148;2023-02-23T12:06:39;13.65;;;5.95;;
76978;SDS011;65911;47.502;19.148;2023-02-23T12:09:47;13.75;;;5.53;;
76978;SDS011;65911;47.502;19.148;2023-02-23T12:16:06;12.55;;;5.63;;
76978;SDS011;65911;47.502;19.148;2023-02-23T12:19:33;14.47;;;5.33;;
76978;SDS011;65911;47.502;19.148;2023-02-23T12:22:42;14.15;;;5.70;;
76978;SDS011;65911;47.502;19.148;2023-02-23T12:25:57;13.40;;;5.60;;
76978;SDS011;65911;47.502;19.148;2023-02-23T12:29:26;12.00;;;5.37;;
76978;SDS011;65911;47.502;19.148;2023-02-23T12:36:26;12.18;;;5.53;;
76978;SDS011;65911;47.502;19.148;2023-02-23T12:39:46;11.70;;;5.45;;
76978;SDS011;65911;47.502;19.148;2023-02-23T12:49:39;12.65;;;5.60;;
76978;SDS011;65911;47.502;19.148;2023-02-23T12:52:52;14.17;;;5.90;;
76978;SDS011;65911;47.502;19.148;2023-02-23T13:03:06;15.60;;;5.83;;
76978;SDS011;65911;47.502;19.148;2023-02-23T13:06:32;10.35;;;5.80;;
76978;SDS011;65911;47.502;19.148;2023-02-23T13:16:53;16.05;;;5.78;;
76978;SDS011;65911;47.502;19.148;2023-02-23T13:20:03;12.70;;;5.72;;
76978;SDS011;65911;47.502;19.148;2023-02-23T13:23:23;12.52;;;5.90;;
76978;SDS011;65911;47.502;19.148;2023-02-23T13:26:50;12.47;;;5.27;;
76978;SDS011;65911;47.502;19.148;2023-02-23T13:29:54;15.73;;;6.18;;
76978;SDS011;65911;47.502;19.148;2023-02-23T13:33:01;14.63;;;6.00;;
76978;SDS011;65911;47.502;19.148;2023-02-23T13:36:05;14.97;;;6.03;;
76978;SDS011;65911;47.502;19.148;2023-02-23T13:49:41;12.90;;;6.03;;
76978;SDS011;65911;47.502;19.148;2023-02-23T13:52:47;15.55;;;6.03;;
76978;SDS011;65911;47.502;19.148;2023-02-23T13:55:49;14.77;;;6.35;;
76978;SDS011;65911;47.502;19.148;2023-02-23T13:59:06;13.77;;;5.80;;
76978;SDS011;65911;47.502;19.148;2023-02-23T14:02:19;14.57;;;5.75;;
76978;SDS011;65911;47.502;19.148;2023-02-23T14:05:29;11.50;;;5.47;;
76978;SDS011;65911;47.502;19.148;2023-02-23T14:08:36;16.27;;;6.53;;
76978;SDS011;65911;47.502;19.148;2023-02-23T14:14:52;15.15;;;5.60;;
76978;SDS011;65911;47.502;19.148;2023-02-23T14:18:00;12.60;;;5.82;;
76978;SDS011;65911;47.502;19.148;2023-02-23T14:21:30;15.70;;;5.95;;
76978;SDS011;65911;47.502;19.148;2023-02-23T14:28:34;14.73;;;6.68;;
76978;SDS011;65911;47.502;19.148;2023-02-23T14:31:37;12.43;;;5.53;;
76978;SDS011;65911;47.502;19.148;2023-02-23T14:34:58;12.10;;;5.80;;
76978;SDS011;65911;47.502;19.148;2023-02-23T14:41:52;11.40;;;6.03;;
76978;SDS011;65911;47.502;19.148;2023-02-23T14:44:57;11.27;;;5.90;;
76978;SDS011;65911;47.502;19.148;2023-02-23T14:48:09;11.73;;;6.00;;
76978;SDS011;65911;47.502;19.148;2023-02-23T14:51:20;12.35;;;6.22;;
76978;SDS011;65911;47.502;19.148;2023-02-23T14:54:39;16.23;;;6.60;;
76978;SDS011;65911;47.502;19.148;2023-02-23T14:57:42;11.15;;;6.30;;
76978;SDS011;65911;47.502;19.148;2023-02-23T15:00:44;12.23;;;6.20;;
76978;SDS011;65911;47.502;19.148;2023-02-23T15:04:06;14.97;;;5.77;;
76978;SDS011;65911;47.502;19.148;2023-02-23T15:07:53;13.77;;;5.13;;
76978;SDS011;65911;47.502;19.148;2023-02-23T15:10:38;11.90;;;5.82;;
76978;SDS011;65911;47.502;19.148;2023-02-23T15:13:42;16.00;;;6.10;;
76978;SDS011;65911;47.502;19.148;2023-02-23T15:16:49;14.30;;;6.10;;
76978;SDS011;65911;47.502;19.148;2023-02-23T15:19:56;12.20;;;6.18;;
76978;SDS011;65911;47.502;19.148;2023-02-23T15:23:16;11.23;;;5.88;;
76978;SDS011;65911;47.502;19.148;2023-02-23T15:26:29;14.80;;;6.47;;
76978;SDS011;65911;47.502;19.148;2023-02-23T15:29:34;11.20;;;6.63;;
76978;SDS011;65911;47.502;19.148;2023-02-23T15:32:38;11.55;;;5.57;;
76978;SDS011;65911;47.502;19.148;2023-02-23T15:36:24;11.53;;;5.67;;
76978;SDS011;65911;47.502;19.148;2023-02-23T15:39:05;10.43;;;6.00;;
76978;SDS011;65911;47.502;19.148;2023-02-23T15:42:14;11.35;;;5.80;;
76978;SDS011;65911;47.502;19.148;2023-02-23T15:45:34;13.53;;;5.63;;
76978;SDS011;65911;47.502;19.148;2023-02-23T15:48:50;11.43;;;5.30;;
76978;SDS011;65911;47.502;19.148;2023-02-23T15:51:56;12.93;;;5.53;;
76978;SDS011;65911;47.502;19.148;2023-02-23T15:55:06;11.35;;;5.10;;
76978;SDS011;65911;47.502;19.148;2023-02-23T15:58:18;12.55;;;5.35;;
76978;SDS011;65911;47.502;19.148;2023-02-23T16:01:29;10.77;;;5.22;;
76978;SDS011;65911;47.502;19.148;2023-02-23T16:04:43;12.77;;;5.85;;
76978;SDS011;65911;47.502;19.148;2023-02-23T16:08:06;11.33;;;5.27;;
76978;SDS011;65911;47.502;19.148;2023-02-23T16:11:23;10.45;;;4.95;;
76978;SDS011;65911;47.502;19.148;2023-02-23T16:15:01;12.07;;;5.53;;
76978;SDS011;65911;47.502;19.148;2023-02-23T16:17:56;9.47;;;5.10;;
76978;SDS011;65911;47.502;19.148;2023-02-23T16:21:00;11.50;;;4.88;;
76978;SDS011;65911;47.502;19.148;2023-02-23T16:24:08;10.88;;;5.07;;
76978;SDS011;65911;47.502;19.148;2023-02-23T16:27:11;11.82;;;4.97;;
76978;SDS011;65911;47.502;19.148;2023-02-23T16:30:18;8.25;;;5.05;;
76978;SDS011;65911;47.502;19.148;2023-02-23T16:33:28;10.57;;;4.72;;
76978;SDS011;65911;47.502;19.148;2023-02-23T16:36:35;11.25;;;5.68;;
76978;SDS011;65911;47.502;19.148;2023-02-23T16:39:41;12.00;;;5.30;;
76978;SDS011;65911;47.502;19.148;2023-02-23T16:42:44;11.75;;;5.55;;
76978;SDS011;65911;47.502;19.148;2023-02-23T16:45:47;10.02;;;5.15;;
76978;SDS011;65911;47.502;19.148;2023-02-23T16:48:49;13.07;;;5.47;;
76978;SDS011;65911;47.502;19.148;2023-02-23T16:51:51;11.75;;;4.97;;
76978;SDS011;65911;47.502;19.148;2023-02-23T16:55:14;12.50;;;5.35;;
76978;SDS011;65911;47.502;19.148;2023-02-23T16:58:21;9.13;;;4.93;;
76978;SDS011;65911;47.502;19.148;2023-02-23T17:01:25;12.90;;;5.22;;
76978;SDS011;65911;47.502;19.148;2023-02-23T17:04:27;13.38;;;5.35;;
76978;SDS011;65911;47.502;19.148;2023-02-23T17:07:30;12.40;;;4.75;;
76978;SDS011;65911;47.502;19.148;2023-02-23T17:10:32;12.17;;;5.13;;
76978;SDS011;65911;47.502;19.148;2023-02-23T17:13:35;14.68;;;5.43;;
76978;SDS011;65911;47.502;19.148;2023-02-23T17:16:37;10.60;;;5.85;;
76978;SDS011;65911;47.502;19.148;2023-02-23T17:19:40;15.10;;;6.37;;
76978;SDS011;65911;47.502;19.148;2023-02-23T17:22:42;15.45;;;6.35;;
76978;SDS011;65911;47.502;19.148;2023-02-23T17:25:45;13.15;;;6.43;;
76978;SDS011;65911;47.502;19.148;2023-02-23T17:28:47;17.98;;;6.72;;
76978;SDS011;65911;47.502;19.148;2023-02-23T17:31:49;13.00;;;6.93;;
76978;SDS011;65911;47.502;19.148;2023-02-23T17:34:52;16.52;;;8.10;;
76978;SDS011;65911;47.502;19.148;2023-02-23T17:37:54;22.95;;;9.60;;
76978;SDS011;65911;47.502;19.148;2023-02-23T17:40:56;21.87;;;9.67;;
76978;SDS011;65911;47.502;19.148;2023-02-23T17:43:58;16.63;;;9.05;;
76978;SDS011;65911;47.502;19.148;2023-02-23T17:47:03;17.33;;;8.57;;
76978;SDS011;65911;47.502;19.148;2023-02-23T17:50:05;20.37;;;9.10;;
76978;SDS011;65911;47.502;19.148;2023-02-23T17:53:08;17.77;;;9.15;;
76978;SDS011;65911;47.502;19.148;2023-02-23T17:56:10;24.77;;;9.27;;
76978;SDS011;65911;47.502;19.148;2023-02-23T17:59:13;19.70;;;9.50;;
76978;SDS011;65911;47.502;19.148;2023-02-23T18:02:16;18.98;;;9.15;;
76978;SDS011;65911;47.502;19.148;2023-02-23T18:05:23;18.95;;;9.80;;
76978;SDS011;65911;47.502;19.148;2023-02-23T18:08:26;22.25;;;9.75;;
76978;SDS011;65911;47.502;19.148;2023-02-23T18:11:28;22.60;;;10.47;;
76978;SDS011;65911;47.502;19.148;2023-02-23T18:14:30;23.63;;;10.18;;
76978;SDS011;65911;47.502;19.148;2023-02-23T18:17:33;20.52;;;10.18;;
76978;SDS011;65911;47.502;19.148;2023-02-23T18:20:37;24.00;;;11.27;;
76978;SDS011;65911;47.502;19.148;2023-02-23T18:23:49;26.42;;;10.77;;
76978;SDS011;65911;47.502;19.148;2023-02-23T18:26:51;23.67;;;11.98;;
76978;SDS011;65911;47.502;19.148;2023-02-23T18:30:00;24.27;;;11.82;;
76978;SDS011;65911;47.502;19.148;2023-02-23T18:33:02;24.02;;;11.65;;
76978;SDS011;65911;47.502;19.148;2023-02-23T18:36:27;24.50;;;11.82;;
76978;SDS011;65911;47.502;19.148;2023-02-23T18:39:32;21.63;;;11.63;;
76978;SDS011;65911;47.502;19.148;2023-02-23T18:42:35;29.10;;;11.63;;
76978;SDS011;65911;47.502;19.148;2023-02-23T18:45:37;28.85;;;12.63;;
76978;SDS011;65911;47.502;19.148;2023-02-23T18:48:40;25.50;;;13.05;;
76978;SDS011;65911;47.502;19.148;2023-02-23T18:51:42;32.50;;;14.67;;
76978;SDS011;65911;47.502;19.148;2023-02-23T18:54:45;31.33;;;14.98;;
76978;SDS011;65911;47.502;19.148;2023-02-23T18:57:48;29.95;;;14.93;;
76978;SDS011;65911;47.502;19.148;2023-02-23T19:00:51;31.15;;;14.27;;
76978;SDS011;65911;47.502;19.148;2023-02-23T19:03:56;27.60;;;14.23;;
76978;SDS011;65911;47.502;19.148;2023-02-23T19:07:00;29.52;;;14.38;;
76978;SDS011;65911;47.502;19.148;2023-02-23T19:10:02;28.45;;;14.43;;
76978;SDS011;65911;47.502;19.148;2023-02-23T19:13:04;29.13;;;13.80;;
76978;SDS011;65911;47.502;19.148;2023-02-23T19:16:09;28.02;;;13.50;;
76978;SDS011;65911;47.502;19.148;2023-02-23T19:19:12;32.30;;;14.63;;
76978;SDS011;65911;47.502;19.148;2023-02-23T19:22:15;32.20;;;14.43;;
76978;SDS011;65911;47.502;19.148;2023-02-23T19:25:17;32.55;;;14.77;;
76978;SDS011;65911;47.502;19.148;2023-02-23T19:28:19;34.15;;;15.77;;
76978;SDS011;65911;47.502;19.148;2023-02-23T19:31:23;31.60;;;14.98;;
76978;SDS011;65911;47.502;19.148;2023-02-23T19:34:26;32.05;;;15.48;;
76978;SDS011;65911;47.502;19.148;2023-02-23T19:37:29;32.63;;;15.60;;
76978;SDS011;65911;47.502;19.148;2023-02-23T19:40:31;35.10;;;15.35;;
76978;SDS011;65911;47.502;19.148;2023-02-23T19:43:37;31.70;;;14.20;;
76978;SDS011;65911;47.502;19.148;2023-02-23T19:46:39;31.85;;;14.07;;
76978;SDS011;65911;47.502;19.148;2023-02-23T19:49:43;28.70;;;14.07;;
76978;SDS011;65911;47.502;19.148;2023-02-23T19:52:47;31.70;;;14.30;;
76978;SDS011;65911;47.502;19.148;2023-02-23T19:55:59;30.00;;;13.57;;